Time;durP1;ratioP1;P1;durP2;ratioP2;P2;SDS_P1;SDS_P2;PMS_P1;PMS_P2;Temp;Humidity;BMP_temperature;BMP_pressure;BME280_temperature;BME280_humidity;BME280_pressure;Samples;Min_cycle;Max_cycle;Signal;HPM_P1;HPM_P2
2022/10/26 00:00:27;;;;;;;12.10;7.13;;;9.10;99.90;;;;;;5012866;28;20034;-77
2022/10/26 00:02:54;;;;;;;13.05;7.30;;;9.10;99.90;;;;;;5013571;28;20397;-77
2022/10/26 00:05:21;;;;;;;16.02;7.60;;;9.20;99.90;;;;;;5013045;28;20030;-77
2022/10/26 00:07:47;;;;;;;17.27;7.85;;;9.20;1.00;;;;;;5013742;28;20022;-77
2022/10/26 00:10:13;;;;;;;19.65;8.18;;;9.10;99.90;;;;;;5012831;28;20486;-77
2022/10/26 00:12:39;;;;;;;18.75;7.70;;;9.20;1.00;;;;;;5009587;28;20034;-77
2022/10/26 00:15:06;;;;;;;18.50;8.10;;;9.20;99.90;;;;;;5012342;28;20037;-77
2022/10/26 00:17:31;;;;;;;11.60;7.60;;;9.10;99.90;;;;;;5013046;28;20018;-77
2022/10/26 00:19:57;;;;;;;15.25;7.13;;;9.10;99.90;;;;;;5005441;28;20034;-77
2022/10/26 00:22:22;;;;;;;16.45;7.53;;;9.00;99.90;;;;;;5012493;28;20116;-77
2022/10/26 00:24:48;;;;;;;16.48;8.38;;;9.00;99.90;;;;;;5005453;28;20029;-77
2022/10/26 00:27:14;;;;;;;12.88;7.40;;;9.00;99.90;;;;;;5013301;28;20030;-77
2022/10/26 00:29:39;;;;;;;15.70;7.45;;;9.10;99.90;;;;;;5008941;28;20441;-77
2022/10/26 00:32:05;;;;;;;13.48;7.60;;;9.10;1.00;;;;;;5006925;28;20045;-77
2022/10/26 00:34:31;;;;;;;13.18;8.20;;;9.00;1.00;;;;;;5003311;28;20033;-77
2022/10/26 00:36:57;;;;;;;15.52;7.28;;;9.00;99.90;;;;;;5012886;28;20520;-77
2022/10/26 00:39:22;;;;;;;14.32;7.50;;;8.90;99.90;;;;;;5012801;28;20144;-77
2022/10/26 00:41:48;;;;;;;15.98;7.78;;;8.90;99.90;;;;;;5012908;28;20037;-77
2022/10/26 00:44:42;;;;;;;18.20;7.53;;;8.90;99.90;;;;;;5012816;28;20485;-77
2022/10/26 00:47:39;;;;;;;16.33;7.55;;;8.80;99.90;;;;;;5006821;28;20026;-77
2022/10/26 00:50:10;;;;;;;11.77;6.40;;;9.00;1.00;;;;;;5006293;28;20033;-77
2022/10/26 00:52:36;;;;;;;16.00;8.32;;;8.90;99.90;;;;;;5012325;28;20095;-77
2022/10/26 00:55:04;;;;;;;13.45;7.85;;;8.90;1.00;;;;;;5010188;28;20033;-77
2022/10/26 00:57:30;;;;;;;13.15;7.15;;;8.90;1.00;;;;;;5012831;28;20504;-77
2022/10/26 00:59:58;;;;;;;14.77;7.43;;;8.80;99.90;;;;;;5013657;28;20022;-77
2022/10/26 01:02:23;;;;;;;13.50;7.75;;;8.70;99.90;;;;;;5012188;28;20057;-78
2022/10/26 01:04:49;;;;;;;12.93;7.35;;;8.90;1.00;;;;;;5012487;28;20099;-78
2022/10/26 01:07:15;;;;;;;16.92;7.88;;;8.70;99.90;;;;;;5010518;28;20153;-77
2022/10/26 01:09:41;;;;;;;14.15;7.35;;;8.70;99.90;;;;;;5011429;28;20037;-77
2022/10/26 01:12:06;;;;;;;15.77;7.85;;;8.60;99.90;;;;;;5009565;28;20034;-77
2022/10/26 01:14:32;;;;;;;14.70;7.63;;;8.60;99.90;;;;;;5012447;28;20026;-77
2022/10/26 01:17:32;;;;;;;13.63;7.57;;;8.60;99.90;;;;;;5012532;28;20259;-77
2022/10/26 01:20:35;;;;;;;20.30;7.77;;;8.60;99.90;;;;;;5011346;28;20179;-77
2022/10/26 01:23:25;;;;;;;14.55;7.15;;;8.60;99.90;;;;;;5009551;28;20317;-77
2022/10/26 01:25:53;;;;;;;30.60;8.52;;;8.50;99.90;;;;;;5011932;28;20054;-77
2022/10/26 01:28:33;;;;;;;16.63;7.28;;;8.50;99.90;;;;;;5012142;28;20018;-77
2022/10/26 01:31:04;;;;;;;16.55;7.50;;;8.50;99.90;;;;;;5011946;28;20038;-77
2022/10/26 01:33:45;;;;;;;14.57;7.28;;;8.50;99.90;;;;;;5012243;28;20033;-77
2022/10/26 01:36:28;;;;;;;11.90;7.10;;;8.50;99.90;;;;;;5012279;28;20029;-78
2022/10/26 01:39:00;;;;;;;15.20;7.15;;;8.50;99.90;;;;;;5011511;28;20462;-77
2022/10/26 01:41:56;;;;;;;15.80;7.65;;;8.50;99.90;;;;;;5012101;28;20077;-77
2022/10/26 01:44:41;;;;;;;14.57;7.35;;;8.40;99.90;;;;;;5008102;28;20111;-77
2022/10/26 01:47:10;;;;;;;17.48;7.80;;;8.40;99.90;;;;;;5012108;28;20529;-77
2022/10/26 01:49:43;;;;;;;11.65;7.35;;;8.60;1.00;;;;;;5012091;28;20026;-77
2022/10/26 01:52:09;;;;;;;13.80;7.65;;;8.50;1.00;;;;;;5010205;28;20042;-77
2022/10/26 01:54:36;;;;;;;13.48;8.55;;;8.40;99.90;;;;;;5003823;28;20022;-77
2022/10/26 01:57:05;;;;;;;16.58;7.80;;;8.40;99.90;;;;;;5009274;28;20022;-77
2022/10/26 02:00:10;;;;;;;13.60;7.72;;;8.50;1.00;;;;;;5011634;28;20022;-77
2022/10/26 02:02:47;;;;;;;16.98;8.60;;;8.50;1.00;;;;;;5011827;28;20118;-77
2022/10/26 02:05:40;;;;;;;16.85;8.15;;;8.40;99.90;;;;;;5011799;28;20030;-77
2022/10/26 02:08:35;;;;;;;15.45;8.27;;;8.30;99.90;;;;;;5008789;28;20393;-77
2022/10/26 02:11:28;;;;;;;13.40;7.60;;;8.70;1.00;;;;;;5008129;28;20034;-77
2022/10/26 02:14:08;;;;;;;18.50;8.82;;;8.60;1.00;;;;;;5010514;28;20046;-77
2022/10/26 02:16:48;;;;;;;15.63;8.43;;;8.70;1.00;;;;;;5003746;28;20026;-77
2022/10/26 02:19:28;;;;;;;21.20;9.15;;;8.70;1.00;;;;;;5008674;28;20025;-77
2022/10/26 02:22:11;;;;;;;17.65;8.52;;;8.60;1.00;;;;;;5011636;28;20083;-77
2022/10/26 02:24:40;;;;;;;16.98;9.55;;;8.60;1.00;;;;;;5002258;28;20089;-77
2022/10/26 02:27:11;;;;;;;17.15;8.88;;;8.60;1.00;;;;;;5011770;28;20026;-77
2022/10/26 02:29:38;;;;;;;15.10;8.80;;;8.60;1.00;;;;;;5010371;28;20034;-77
2022/10/26 02:32:07;;;;;;;21.02;9.40;;;8.80;1.00;;;;;;5012032;28;20052;-77
2022/10/26 02:34:36;;;;;;;17.40;8.95;;;8.80;1.00;;;;;;5010892;28;20083;-78
2022/10/26 02:37:03;;;;;;;21.20;9.77;;;8.80;1.00;;;;;;5011677;28;20029;-77
2022/10/26 02:39:32;;;;;;;17.55;9.82;;;9.00;1.00;;;;;;5011459;28;20148;-77
2022/10/26 02:42:00;;;;;;;20.70;11.32;;;9.00;1.00;;;;;;5015473;28;20034;-77
2022/10/26 02:44:30;;;;;;;18.92;10.35;;;9.00;1.00;;;;;;5015064;28;20022;-77
2022/10/26 02:46:56;;;;;;;21.53;10.00;;;9.00;1.00;;;;;;5015463;28;20537;-77
2022/10/26 02:49:22;;;;;;;19.23;9.70;;;9.00;1.00;;;;;;5012824;28;20255;-77
2022/10/26 02:51:53;;;;;;;19.30;9.50;;;9.00;1.00;;;;;;5014922;28;20065;-77
2022/10/26 02:54:31;;;;;;;18.27;9.52;;;9.00;1.00;;;;;;5014257;28;20423;-77
2022/10/26 02:57:07;;;;;;;26.98;11.52;;;9.20;1.00;;;;;;5007753;28;20034;-77
2022/10/26 02:59:36;;;;;;;17.23;9.00;;;9.20;1.00;;;;;;5012095;28;20500;-77
2022/10/26 03:02:03;;;;;;;23.92;10.35;;;9.20;1.00;;;;;;5006360;28;20075;-77
2022/10/26 03:04:30;;;;;;;21.17;9.85;;;9.10;1.00;;;;;;5014484;28;20494;-77
2022/10/26 03:06:56;;;;;;;18.67;10.13;;;9.10;1.00;;;;;;5014501;28;20029;-77
2022/10/26 03:09:22;;;;;;;21.77;9.63;;;9.10;1.00;;;;;;5011153;28;20049;-77
2022/10/26 03:11:48;;;;;;;20.88;9.95;;;9.00;1.00;;;;;;5014145;28;20119;-77
2022/10/26 03:14:13;;;;;;;20.10;9.90;;;9.00;1.00;;;;;;5015009;28;20056;-77
2022/10/26 03:16:39;;;;;;;20.23;10.52;;;9.10;1.00;;;;;;5015161;28;20543;-77
2022/10/26 03:19:04;;;;;;;22.88;10.43;;;9.30;1.00;;;;;;5014000;28;20030;-77
2022/10/26 03:21:30;;;;;;;21.42;9.98;;;9.20;1.00;;;;;;5014700;28;20049;-77
2022/10/26 03:23:56;;;;;;;19.88;10.63;;;9.20;1.00;;;;;;5014219;28;20018;-78
2022/10/26 03:26:21;;;;;;;22.33;10.43;;;9.20;1.00;;;;;;5014067;28;20045;-77
2022/10/26 03:28:47;;;;;;;25.50;11.73;;;9.20;1.00;;;;;;5014280;28;20032;-77
2022/10/26 03:31:12;;;;;;;23.30;10.43;;;9.30;1.00;;;;;;5011910;28;20101;-77
2022/10/26 03:33:38;;;;;;;19.80;11.15;;;9.30;1.00;;;;;;5014223;28;20026;-78
2022/10/26 03:36:04;;;;;;;22.98;11.70;;;9.30;1.00;;;;;;5013849;28;20030;-77
2022/10/26 03:38:29;;;;;;;21.42;10.68;;;9.30;1.00;;;;;;5013840;28;20022;-77
2022/10/26 03:40:55;;;;;;;21.95;10.45;;;9.20;1.00;;;;;;5011016;28;20108;-77
2022/10/26 03:43:20;;;;;;;18.17;11.20;;;9.20;1.00;;;;;;5014300;28;20022;-77
2022/10/26 03:45:46;;;;;;;23.50;11.38;;;9.30;1.00;;;;;;5013725;28;20022;-77
2022/10/26 03:48:12;;;;;;;22.88;11.43;;;9.30;1.00;;;;;;5014047;28;20389;-77
2022/10/26 03:50:37;;;;;;;25.38;11.60;;;9.40;1.00;;;;;;5013615;28;20034;-77
2022/10/26 03:53:03;;;;;;;22.40;11.77;;;9.40;1.00;;;;;;5013501;28;20030;-77
2022/10/26 03:55:29;;;;;;;22.50;10.82;;;9.40;1.00;;;;;;5013923;28;20409;-77
2022/10/26 03:57:54;;;;;;;25.83;12.23;;;9.50;1.00;;;;;;5013479;28;20207;-77
2022/10/26 04:00:20;;;;;;;22.35;12.27;;;9.60;1.00;;;;;;5013716;28;20080;-77
2022/10/26 04:02:53;;;;;;;24.77;11.75;;;9.70;1.00;;;;;;5013285;28;20026;-78
2022/10/26 04:05:19;;;;;;;22.48;12.13;;;9.70;1.00;;;;;;5011524;28;20037;-77
2022/10/26 04:07:53;;;;;;;20.70;11.30;;;9.70;1.00;;;;;;5013448;28;20022;-78
2022/10/26 04:10:19;;;;;;;28.90;11.70;;;9.80;1.00;;;;;;5013276;28;20053;-78
2022/10/26 04:12:45;;;;;;;21.38;11.15;;;9.80;1.00;;;;;;5013283;28;20045;-77
2022/10/26 04:15:11;;;;;;;20.38;11.35;;;9.80;1.00;;;;;;5012908;28;20389;-77
2022/10/26 04:17:36;;;;;;;20.85;10.55;;;9.80;1.00;;;;;;5013322;28;20372;-78
2022/10/26 04:20:02;;;;;;;26.63;11.50;;;9.80;1.00;;;;;;5013141;28;20022;-78
2022/10/26 04:22:28;;;;;;;21.90;11.63;;;9.80;1.00;;;;;;5013409;28;20030;-78
2022/10/26 04:24:53;;;;;;;26.40;13.13;;;9.90;1.00;;;;;;5013091;28;20378;-78
2022/10/26 04:27:20;;;;;;;21.80;11.27;;;10.00;1.00;;;;;;5013310;28;20097;-78
2022/10/26 04:29:45;;;;;;;20.73;11.52;;;10.00;1.00;;;;;;5010391;28;20026;-78
2022/10/26 04:32:11;;;;;;;25.10;12.90;;;10.00;1.00;;;;;;5012775;28;20044;-78
2022/10/26 04:34:36;;;;;;;22.77;11.85;;;10.10;1.00;;;;;;5012749;28;20053;-78
2022/10/26 04:37:02;;;;;;;24.55;12.80;;;10.00;1.00;;;;;;5012732;28;20022;-78
2022/10/26 04:39:27;;;;;;;24.45;12.30;;;10.10;1.00;;;;;;5012719;28;20301;-77
2022/10/26 04:41:53;;;;;;;18.92;11.02;;;10.10;1.00;;;;;;5013248;28;20022;-78
2022/10/26 04:44:19;;;;;;;18.65;11.18;;;10.10;1.00;;;;;;5012800;28;20029;-78
2022/10/26 04:46:44;;;;;;;27.27;12.32;;;10.20;99.90;;;;;;5013275;28;20101;-78
2022/10/26 04:49:10;;;;;;;20.73;12.00;;;10.20;99.90;;;;;;5012723;28;20091;-78
2022/10/26 04:51:35;;;;;;;20.85;12.60;;;10.20;99.90;;;;;;5012731;28;20076;-77
2022/10/26 04:54:02;;;;;;;22.52;12.57;;;10.20;99.90;;;;;;5012257;28;20034;-77
2022/10/26 04:56:28;;;;;;;19.65;11.82;;;10.30;99.90;;;;;;5005815;28;20014;-77
2022/10/26 04:58:54;;;;;;;21.52;11.60;;;10.30;99.90;;;;;;5012564;28;20033;-78
2022/10/26 05:01:19;;;;;;;20.15;11.80;;;10.30;99.90;;;;;;5011809;28;20034;-78
2022/10/26 05:03:49;;;;;;;19.77;11.32;;;10.40;99.90;;;;;;5010002;28;20037;-78
2022/10/26 05:06:14;;;;;;;22.17;12.63;;;10.40;99.90;;;;;;5001820;28;20113;-78
2022/10/26 05:08:40;;;;;;;26.42;13.27;;;10.40;99.90;;;;;;5011067;28;20053;-79
2022/10/26 05:11:05;;;;;;;24.05;13.27;;;10.40;99.90;;;;;;5010532;28;20030;-78
2022/10/26 05:13:31;;;;;;;24.55;13.13;;;10.40;99.90;;;;;;5011256;28;20037;-78
2022/10/26 05:15:57;;;;;;;27.10;14.20;;;10.40;99.90;;;;;;5011894;28;20042;-78
2022/10/26 05:18:22;;;;;;;27.23;14.05;;;10.40;99.90;;;;;;5010961;28;20018;-78
2022/10/26 05:20:50;;;;;;;23.33;13.00;;;10.50;99.90;;;;;;5009022;28;20029;-78
2022/10/26 05:23:19;;;;;;;23.08;13.38;;;10.40;99.90;;;;;;5010550;28;20029;-78
2022/10/26 05:25:45;;;;;;;21.50;13.52;;;10.40;99.90;;;;;;5008184;28;20029;-78
2022/10/26 05:28:13;;;;;;;24.73;12.43;;;10.50;99.90;;;;;;5011308;28;20032;-78
2022/10/26 05:30:43;;;;;;;27.58;13.00;;;10.40;99.90;;;;;;5010264;28;20069;-78
2022/10/26 05:33:12;;;;;;;23.20;13.13;;;10.30;99.90;;;;;;5010131;28;20061;-78
2022/10/26 05:35:38;;;;;;;23.92;12.38;;;10.30;99.90;;;;;;5011738;28;21352;-79
2022/10/26 05:38:16;;;;;;;22.42;13.50;;;10.40;99.90;;;;;;5010833;28;20109;-78
2022/10/26 05:40:53;;;;;;;22.45;12.88;;;10.30;99.90;;;;;;5009629;28;20581;-78
2022/10/26 05:43:20;;;;;;;23.30;13.73;;;10.30;99.90;;;;;;5011706;28;20029;-78
2022/10/26 05:45:48;;;;;;;23.63;12.50;;;10.40;99.90;;;;;;5010706;28;20066;-79
2022/10/26 05:48:13;;;;;;;20.20;12.63;;;10.30;99.90;;;;;;5006034;28;20030;-78
2022/10/26 05:50:39;;;;;;;22.63;12.57;;;10.30;99.90;;;;;;5001372;28;20033;-78
2022/10/26 05:53:05;;;;;;;23.63;12.70;;;10.30;99.90;;;;;;5011967;28;20113;-78
2022/10/26 05:55:31;;;;;;;25.10;12.45;;;10.30;99.90;;;;;;5012193;28;20048;-78
2022/10/26 05:57:57;;;;;;;20.90;12.00;;;10.20;99.90;;;;;;5011809;28;20359;-78
2022/10/26 06:00:24;;;;;;;21.60;11.98;;;10.20;99.90;;;;;;5010570;28;20492;-78
2022/10/26 06:03:05;;;;;;;20.25;11.52;;;10.20;99.90;;;;;;5009009;28;20022;-78
2022/10/26 06:05:34;;;;;;;;;;;10.30;99.90;;;;;;5011354;28;20026;-78
2022/10/26 06:07:59;;;;;;;18.25;10.00;;;10.20;99.90;;;;;;5011259;28;19924;-78
2022/10/26 06:10:26;;;;;;;19.67;10.70;;;10.20;99.90;;;;;;5011616;28;20026;-78
2022/10/26 06:12:51;;;;;;;24.85;12.30;;;10.30;99.90;;;;;;5012206;28;20026;-77
2022/10/26 06:15:21;;;;;;;22.83;11.85;;;10.30;99.90;;;;;;5015193;28;20018;-78
2022/10/26 06:18:03;;;;;;;20.42;12.40;;;10.30;99.90;;;;;;5015131;28;20521;-78
2022/10/26 06:20:57;;;;;;;20.00;11.55;;;10.30;99.90;;;;;;5012866;28;20034;-77
2022/10/26 06:23:47;;;;;;;16.23;10.43;;;10.20;99.90;;;;;;5012259;28;20400;-77
2022/10/26 06:26:33;;;;;;;21.50;12.02;;;10.20;99.90;;;;;;5011514;28;20092;-77
2022/10/26 06:29:23;;;;;;;23.13;13.32;;;10.10;99.90;;;;;;5010100;28;20705;-77
2022/10/26 06:31:49;;;;;;;22.45;11.90;;;10.20;99.90;;;;;;5014220;28;20033;-78
2022/10/26 06:34:24;;;;;;;22.08;12.30;;;10.20;99.90;;;;;;5014807;28;20119;-78
2022/10/26 06:36:50;;;;;;;20.52;12.00;;;10.30;99.90;;;;;;5014987;28;20424;-78
2022/10/26 06:39:16;;;;;;;18.08;11.63;;;10.40;99.90;;;;;;5014790;28;20029;-78
2022/10/26 06:41:42;;;;;;;20.95;11.77;;;10.40;99.90;;;;;;5015230;28;20037;-78
2022/10/26 06:44:11;;;;;;;21.55;12.25;;;10.50;99.90;;;;;;5011597;28;20022;-78
2022/10/26 06:47:04;;;;;;;22.23;11.95;;;10.50;99.90;;;;;;5014147;28;20040;-78
2022/10/26 06:49:35;;;;;;;23.27;11.93;;;10.60;99.90;;;;;;5012484;28;20022;-77
2022/10/26 06:52:27;;;;;;;20.92;11.98;;;10.70;99.90;;;;;;5012151;28;20026;-78
2022/10/26 06:54:54;;;;;;;25.55;12.60;;;10.70;99.90;;;;;;5009847;28;20085;-77
2022/10/26 06:57:22;;;;;;;21.33;12.50;;;11.00;99.90;;;;;;5010986;28;20163;-77
2022/10/26 06:59:52;;;;;;;21.42;11.95;;;10.90;99.90;;;;;;5013701;28;20029;-78
2022/10/26 07:02:18;;;;;;;;;;;11.00;99.90;;;;;;5015377;28;20022;-78
2022/10/26 07:04:44;;;;;;;20.05;11.15;;;11.00;99.90;;;;;;5013387;28;19916;-78
2022/10/26 07:07:24;;;;;;;17.58;10.98;;;11.00;99.90;;;;;;5010750;28;20026;-78
2022/10/26 07:09:50;;;;;;;18.88;11.00;;;11.10;99.90;;;;;;5009807;28;20500;-77
2022/10/26 07:12:15;;;;;;;18.67;10.93;;;11.20;99.90;;;;;;5012434;28;20034;-78
2022/10/26 07:14:41;;;;;;;18.40;11.20;;;11.30;99.90;;;;;;5013147;28;20030;-78
2022/10/26 07:17:08;;;;;;;21.02;10.50;;;11.30;99.90;;;;;;5008485;28;20029;-78
2022/10/26 07:19:34;;;;;;;18.88;11.68;;;11.30;99.90;;;;;;5011619;28;20053;-77
2022/10/26 07:22:00;;;;;;;20.67;10.38;;;11.40;99.90;;;;;;5011512;28;20108;-78
2022/10/26 07:24:26;;;;;;;20.00;11.40;;;11.50;99.90;;;;;;5011665;28;20014;-77
2022/10/26 07:26:56;;;;;;;21.80;12.05;;;11.60;99.90;;;;;;5011962;28;20034;-78
2022/10/26 07:29:23;;;;;;;20.13;10.88;;;11.70;99.90;;;;;;5010761;28;20033;-77
2022/10/26 07:31:49;;;;;;;17.25;10.57;;;11.90;99.90;;;;;;5012016;28;20018;-78
2022/10/26 07:34:14;;;;;;;18.35;11.18;;;12.10;99.90;;;;;;5010276;28;20052;-78
2022/10/26 07:36:40;;;;;;;14.52;9.18;;;12.30;99.90;;;;;;5013092;28;20065;-77
2022/10/26 07:39:06;;;;;;;18.20;10.40;;;12.50;99.90;;;;;;5010507;28;20028;-77
2022/10/26 07:41:32;;;;;;;15.00;9.52;;;12.80;99.90;;;;;;5008985;28;20058;-77
2022/10/26 07:43:58;;;;;;;16.38;10.13;;;12.80;99.90;;;;;;5011229;28;20040;-77
2022/10/26 07:46:24;;;;;;;14.35;8.90;;;12.80;99.90;;;;;;5012544;28;20018;-78
2022/10/26 07:48:49;;;;;;;17.38;9.10;;;12.70;99.90;;;;;;5014078;28;20033;-78
2022/10/26 07:51:15;;;;;;;13.50;8.85;;;12.70;99.90;;;;;;5011683;28;20031;-78
2022/10/26 07:53:41;;;;;;;16.00;8.88;;;12.80;99.90;;;;;;5013848;28;20036;-78
2022/10/26 07:56:08;;;;;;;17.20;9.18;;;14.90;99.90;;;;;;5013253;28;20022;-78
2022/10/26 07:58:35;;;;;;;12.75;8.35;;;17.00;88.60;;;;;;5013569;28;20110;-78
2022/10/26 08:01:09;;;;;;;11.13;7.35;;;20.50;52.50;;;;;;5013246;28;20037;-77
2022/10/26 08:03:35;;;;;;;11.02;7.78;;;23.00;24.90;;;;;;5010796;28;20022;-77
2022/10/26 08:06:02;;;;;;;13.35;7.45;;;24.70;12.90;;;;;;5013268;28;20088;-80
2022/10/26 08:08:28;;;;;;;11.40;6.75;;;25.00;2.10;;;;;;5013966;28;20032;-78
2022/10/26 08:10:54;;;;;;;10.27;6.28;;;24.80;1.00;;;;;;5009180;28;20440;-78
2022/10/26 08:13:19;;;;;;;11.57;6.68;;;26.30;1.00;;;;;;5012656;28;20448;-78
2022/10/26 08:15:46;;;;;;;7.47;5.82;;;27.80;1.00;;;;;;5012348;28;20022;-78
2022/10/26 08:18:12;;;;;;;9.25;5.93;;;29.50;1.00;;;;;;5012078;28;20687;-78
2022/10/26 08:20:37;;;;;;;7.45;6.15;;;29.60;1.00;;;;;;5011501;28;20037;-78
2022/10/26 08:23:05;;;;;;;8.10;5.40;;;31.90;1.00;;;;;;5011686;28;20025;-78
2022/10/26 08:25:31;;;;;;;10.07;5.75;;;29.60;1.00;;;;;;5012390;28;20026;-78
2022/10/26 08:28:03;;;;;;;11.88;5.40;;;29.20;1.00;;;;;;5012707;28;20024;-78
2022/10/26 08:30:32;;;;;;;8.90;5.10;;;25.90;1.00;;;;;;5012461;28;20041;-79
2022/10/26 08:33:02;;;;;;;6.53;4.82;;;23.50;1.00;;;;;;5012302;28;20026;-79
2022/10/26 08:35:28;;;;;;;;;;;23.10;1.00;;;;;;5010077;28;20014;-79
2022/10/26 08:37:53;;;;;;;6.80;4.93;;;27.10;1.00;;;;;;5013033;28;19916;-79
2022/10/26 08:40:24;;;;;;;6.68;5.60;;;28.50;1.00;;;;;;5012466;28;20481;-78
2022/10/26 08:42:55;;;;;;;9.38;5.20;;;29.30;1.00;;;;;;5005759;28;20037;-78
2022/10/26 08:45:33;;;;;;;6.32;4.53;;;31.40;1.00;;;;;;5009398;28;20030;-78
2022/10/26 08:48:04;;;;;;;12.65;5.05;;;31.40;1.00;;;;;;5007578;28;20026;-78
2022/10/26 08:50:51;;;;;;;6.57;4.68;;;26.80;1.00;;;;;;5011336;28;20038;-78
2022/10/26 08:53:23;;;;;;;9.18;5.05;;;23.80;1.00;;;;;;5011883;28;20040;-78
2022/10/26 08:56:22;;;;;;;7.30;4.88;;;22.30;1.00;;;;;;5011326;28;20033;-78
2022/10/26 08:58:52;;;;;;;5.30;4.57;;;21.50;1.00;;;;;;5009657;28;20089;-78
2022/10/26 09:01:18;;;;;;;6.47;5.25;;;20.20;1.00;;;;;;5012802;28;20095;-78
2022/10/26 09:03:44;;;;;;;7.50;5.18;;;19.20;1.00;;;;;;5012042;28;20467;-78
2022/10/26 09:06:29;;;;;;;8.98;5.00;;;18.60;1.00;;;;;;5012736;28;20022;-78
2022/10/26 09:09:20;;;;;;;10.98;5.45;;;18.30;1.00;;;;;;5012003;28;20112;-78
2022/10/26 09:12:04;;;;;;;7.10;5.32;;;18.00;1.00;;;;;;5012250;28;20069;-78
2022/10/26 09:14:42;;;;;;;13.63;5.30;;;17.90;1.00;;;;;;5006187;28;20593;-78
2022/10/26 09:17:18;;;;;;;7.60;5.05;;;17.90;1.00;;;;;;5003419;28;20112;-78
2022/10/26 09:19:43;;;;;;;7.55;4.80;;;17.70;1.00;;;;;;5012516;28;20104;-78
2022/10/26 09:22:12;;;;;;;7.57;4.90;;;17.60;1.00;;;;;;5012328;28;20105;-78
2022/10/26 09:24:52;;;;;;;8.10;4.43;;;17.60;1.00;;;;;;5012518;28;20026;-78
2022/10/26 09:27:24;;;;;;;6.47;4.72;;;17.40;1.00;;;;;;5010320;28;20485;-77
2022/10/26 09:29:51;;;;;;;6.72;4.50;;;17.40;1.00;;;;;;5010519;28;20022;-78
2022/10/26 09:32:19;;;;;;;8.45;4.10;;;17.20;1.00;;;;;;5011805;28;20076;-78
2022/10/26 09:34:45;;;;;;;6.88;4.10;;;17.20;1.00;;;;;;5012071;28;20036;-78
2022/10/26 09:37:21;;;;;;;7.38;4.13;;;17.50;1.00;;;;;;5012091;28;20113;-78
2022/10/26 09:40:17;;;;;;;7.78;4.43;;;17.90;1.00;;;;;;5007719;28;20026;-78
2022/10/26 09:43:08;;;;;;;7.90;3.83;;;18.00;1.00;;;;;;5012130;28;20061;-79
2022/10/26 09:45:40;;;;;;;8.50;3.67;;;17.80;1.00;;;;;;5012951;28;20458;-79
2022/10/26 09:48:21;;;;;;;8.40;3.70;;;18.20;1.00;;;;;;5016366;28;20022;-79
2022/10/26 09:50:48;;;;;;;6.45;3.70;;;18.60;1.00;;;;;;5017681;28;20454;-78
2022/10/26 09:53:14;;;;;;;6.53;3.22;;;18.80;1.00;;;;;;5003078;28;20066;-79
2022/10/26 09:55:43;;;;;;;6.57;3.55;;;18.80;1.00;;;;;;4998423;28;20018;-79
2022/10/26 09:58:15;;;;;;;6.22;3.50;;;18.90;1.00;;;;;;4998141;28;20097;-78
2022/10/26 10:00:42;;;;;;;4.80;3.42;;;18.50;1.00;;;;;;5015034;28;20037;-78
2022/10/26 10:03:25;;;;;;;5.95;3.58;;;18.50;1.00;;;;;;5016030;28;20465;-79
2022/10/26 10:05:51;;;;;;;6.68;3.85;;;18.40;1.00;;;;;;5013868;28;20048;-78
2022/10/26 10:08:20;;;;;;;5.15;3.38;;;18.40;1.00;;;;;;5015894;28;20061;-79
2022/10/26 10:11:09;;;;;;;5.75;3.45;;;18.50;1.00;;;;;;5012333;28;20428;-79
2022/10/26 10:13:37;;;;;;;4.35;2.75;;;18.60;1.00;;;;;;5013452;28;20032;-79
2022/10/26 10:16:09;;;;;;;4.07;2.90;;;18.80;1.00;;;;;;5014668;28;20045;-79
2022/10/26 10:18:37;;;;;;;5.80;3.05;;;18.70;1.00;;;;;;5011560;28;20430;-78
2022/10/26 10:21:04;;;;;;;6.60;2.95;;;19.00;1.00;;;;;;5011321;28;20056;-78
2022/10/26 10:23:36;;;;;;;6.97;2.85;;;18.90;1.00;;;;;;5014775;28;20129;-78
2022/10/26 10:26:12;;;;;;;6.43;3.15;;;18.80;1.00;;;;;;5012076;28;20108;-79
2022/10/26 10:28:39;;;;;;;4.15;2.55;;;18.80;1.00;;;;;;5015931;28;20026;-79
2022/10/26 10:31:19;;;;;;;5.20;2.70;;;19.20;1.00;;;;;;5016626;28;20030;-79
2022/10/26 10:33:45;;;;;;;4.25;2.70;;;19.10;1.00;;;;;;5016435;28;20457;-79
2022/10/26 10:36:17;;;;;;;3.92;2.42;;;19.00;1.00;;;;;;5012782;28;20029;-79
2022/10/26 10:38:45;;;;;;;5.90;3.20;;;18.60;1.00;;;;;;5012414;28;20033;-79
2022/10/26 10:41:24;;;;;;;6.85;3.13;;;18.50;1.00;;;;;;5011956;28;20057;-79
2022/10/26 10:44:15;;;;;;;4.57;3.13;;;18.60;1.00;;;;;;5010373;28;20038;-78
2022/10/26 10:46:41;;;;;;;5.78;3.30;;;18.50;1.00;;;;;;5014464;28;20030;-78
2022/10/26 10:49:20;;;;;;;7.45;3.03;;;18.50;1.00;;;;;;5014696;28;20100;-79
2022/10/26 10:51:47;;;;;;;5.20;3.33;;;18.70;1.00;;;;;;5007527;28;20034;-78
2022/10/26 10:54:46;;;;;;;5.88;3.00;;;18.80;1.00;;;;;;5013422;28;20493;-78
2022/10/26 10:57:21;;;;;;;6.47;3.60;;;18.80;1.00;;;;;;4998556;28;20045;-78
2022/10/26 11:00:01;;;;;;;5.72;3.30;;;18.80;1.00;;;;;;5007755;28;20393;-78
2022/10/26 11:03:03;;;;;;;6.80;3.38;;;18.80;1.00;;;;;;5012835;28;20026;-78
2022/10/26 11:05:59;;;;;;;5.75;3.40;;;18.80;1.00;;;;;;5013188;28;20133;-78
2022/10/26 11:08:29;;;;;;;4.55;3.25;;;19.00;1.00;;;;;;5014379;28;20030;-79
2022/10/26 11:11:12;;;;;;;6.90;3.40;;;19.20;1.00;;;;;;5014912;28;20105;-79
2022/10/26 11:14:02;;;;;;;8.75;3.88;;;19.30;1.00;;;;;;5013783;28;20034;-79
2022/10/26 11:16:36;;;;;;;5.00;3.38;;;19.50;1.00;;;;;;5014277;28;20029;-79
2022/10/26 11:19:11;;;;;;;5.85;3.28;;;19.60;1.00;;;;;;5014529;28;20394;-79
2022/10/26 11:21:36;;;;;;;8.10;3.65;;;19.50;1.00;;;;;;5013185;28;20022;-78
2022/10/26 11:24:12;;;;;;;8.00;3.60;;;19.50;1.00;;;;;;5014450;28;20037;-78
2022/10/26 11:26:43;;;;;;;8.05;3.55;;;19.60;1.00;;;;;;5014313;28;20018;-78
2022/10/26 11:29:22;;;;;;;5.47;3.67;;;19.40;1.00;;;;;;5013410;28;20109;-78
2022/10/26 11:32:21;;;;;;;6.70;3.40;;;19.30;1.00;;;;;;5005776;28;20026;-79
2022/10/26 11:35:19;;;;;;;6.70;4.30;;;19.50;1.00;;;;;;5010522;28;20275;-79
2022/10/26 11:37:54;;;;;;;6.47;3.60;;;19.50;1.00;;;;;;5014230;28;20271;-79
2022/10/26 11:40:46;;;;;;;8.27;3.97;;;19.30;1.00;;;;;;5013642;28;20054;-79
2022/10/26 11:43:24;;;;;;;7.78;4.15;;;19.50;1.00;;;;;;5011893;28;20018;-79
2022/10/26 11:46:08;;;;;;;7.35;3.67;;;20.00;1.00;;;;;;5013029;28;20018;-79
2022/10/26 11:48:42;;;;;;;8.80;4.05;;;19.70;1.00;;;;;;5010681;28;20033;-79
2022/10/26 11:51:17;;;;;;;6.32;3.88;;;19.90;1.00;;;;;;5012075;28;20052;-79
2022/10/26 11:53:45;;;;;;;5.50;3.95;;;19.90;1.00;;;;;;5014790;28;20045;-78
2022/10/26 11:56:22;;;;;;;7.15;4.03;;;19.90;1.00;;;;;;5014858;28;20022;-79
2022/10/26 11:58:48;;;;;;;8.63;4.18;;;19.80;1.00;;;;;;5016424;28;20149;-82
2022/10/26 12:01:15;;;;;;;9.13;4.32;;;20.10;1.00;;;;;;5016654;28;20030;-83
2022/10/26 12:03:47;;;;;;;6.93;3.63;;;19.90;1.00;;;;;;5014533;28;20502;-82
2022/10/26 12:06:15;;;;;;;8.30;4.07;;;20.00;1.00;;;;;;5015643;28;20030;-81
2022/10/26 12:08:53;;;;;;;7.65;3.85;;;19.70;1.00;;;;;;5015172;28;20048;-81
2022/10/26 12:11:33;;;;;;;5.35;4.00;;;19.60;1.00;;;;;;5008876;28;20065;-81
2022/10/26 12:14:10;;;;;;;9.85;4.32;;;19.60;1.00;;;;;;5016233;28;20400;-80
2022/10/26 12:17:11;;;;;;;10.95;4.55;;;19.70;1.00;;;;;;5016261;28;20061;-81
2022/10/26 12:19:47;;;;;;;9.50;3.85;;;19.70;1.00;;;;;;5003686;28;20537;-81
2022/10/26 12:22:16;;;;;;;12.10;4.30;;;19.60;1.00;;;;;;5012963;28;20096;-81
2022/10/26 12:24:44;;;;;;;5.45;4.38;;;19.30;1.00;;;;;;5013430;28;20105;-81
2022/10/26 12:27:48;;;;;;;7.28;4.43;;;19.40;1.00;;;;;;5012287;28;20026;-81
2022/10/26 12:30:24;;;;;;;7.07;4.30;;;19.40;1.00;;;;;;5016393;28;20473;-81
2022/10/26 12:32:55;;;;;;;6.65;3.97;;;19.50;1.00;;;;;;5016981;28;20022;-81
2022/10/26 12:35:44;;;;;;;9.15;4.43;;;19.50;1.00;;;;;;5019283;28;20041;-81
2022/10/26 12:38:24;;;;;;;9.63;4.68;;;19.50;1.00;;;;;;5017289;28;20073;-81
2022/10/26 12:41:06;;;;;;;8.65;4.80;;;19.60;1.00;;;;;;5011448;28;20046;-81
2022/10/26 12:43:33;;;;;;;6.47;3.58;;;19.60;1.00;;;;;;5020240;28;20045;-81
2022/10/26 12:46:11;;;;;;;7.35;4.00;;;19.50;1.00;;;;;;5016311;28;20037;-81
2022/10/26 12:48:42;;;;;;;6.07;4.35;;;19.60;1.00;;;;;;5019039;28;20033;-81
2022/10/26 12:51:25;;;;;;;5.57;4.00;;;20.00;1.00;;;;;;5017422;28;20474;-81
2022/10/26 12:53:54;;;;;;;8.13;4.50;;;19.80;1.00;;;;;;5009823;28;20029;-80
2022/10/26 12:56:29;;;;;;;8.90;4.60;;;20.00;1.00;;;;;;5018333;28;20018;-81
2022/10/26 12:59:29;;;;;;;7.75;4.07;;;20.00;1.00;;;;;;5014198;28;20056;-81
2022/10/26 13:02:21;;;;;;;6.82;4.43;;;19.80;1.00;;;;;;5033712;28;20022;-81
2022/10/26 13:05:31;;;;;;;11.80;4.45;;;19.60;1.00;;;;;;5007711;28;20375;-82
2022/10/26 13:08:09;;;;;;;13.13;4.25;;;19.50;1.00;;;;;;5010818;28;20029;-80
2022/10/26 13:10:36;;;;;;;12.32;4.55;;;19.60;1.00;;;;;;5019064;28;20045;-81
2022/10/26 13:13:06;;;;;;;9.35;4.30;;;19.70;1.00;;;;;;5008566;28;20106;-81